Deep Creek Georgetown DE USA current weather conditions

sailwx.info

Wind from 343 at 10 knots gusting 15

Air temperature -0.9° C
Dewpoint -8.8° C

Last reported at 2019-Nov-13 04:00 UTC.
Time now 2019-Nov-13 04:33 UTC

Location: N 38°38' W 075°27'.
View on Google Maps.

See reports from other nearby stations

  
Tides and Currents Weather Stations Pressure Air Temp Water Temp Dewpoint Dewpoint Depression Visibility Wind Speed Wind Dir Waves Ship Positions
date/time (UTC)wind fromknots sea level pressurealtimeterstation pressurevisibilityair tempwater tempwave heightnotes
2019-Nov-13 04:00 343 10 gusting 15 -0.9
2019-Nov-13 03:55 341 8 gusting 13 -0.8
2019-Nov-13 03:50 342 11 gusting 16 -0.6
2019-Nov-13 03:45 343 11 gusting 16 -0.6
2019-Nov-13 03:40 345 11 gusting 15 -0.4
2019-Nov-13 03:35 349 11 gusting 16 -0.4
2019-Nov-13 03:30 349 12 gusting 20 -0.3
2019-Nov-13 03:25 347 12 gusting 21 -0.2
2019-Nov-13 03:20 343 13 gusting 19 -0.3
2019-Nov-13 03:15 343 12 gusting 17 -0.3
2019-Nov-13 03:10 349 11 gusting 17 -0.4
2019-Nov-13 03:05 352 9 gusting 11 -0.5
2019-Nov-13 03:00 349 8 gusting 12 -0.5
2019-Nov-13 02:55 347 7 gusting 11 -0.5
2019-Nov-13 02:50 341 8 gusting 11 -0.5
2019-Nov-13 02:45 340 6 gusting 9 -0.5
2019-Nov-13 02:40 344 6 gusting 9 -0.4
2019-Nov-13 02:35 341 7 gusting 10 -0.4
2019-Nov-13 02:30 340 6 gusting 8 -0.3
2019-Nov-13 02:25 338 8 gusting 11 -0.2
2019-Nov-13 02:20 341 10 gusting 13 -0.2
2019-Nov-13 02:15 352 10 gusting 14 -0.2
2019-Nov-13 02:10 353 8 gusting 14 -0.3
2019-Nov-13 02:05 350 6 gusting 8 -0.2
2019-Nov-13 02:00 343 7 gusting 12 -0.2
2019-Nov-13 01:55 336 8 gusting 11 -0.2
2019-Nov-13 01:50 342 7 gusting 10 -0.1
2019-Nov-13 01:45 348 8 gusting 11 0.1
2019-Nov-13 01:40 350 7 gusting 9 0.2
2019-Nov-13 01:35 345 7 gusting 10 0.3
2019-Nov-13 01:30 344 8 gusting 12 0.3
2019-Nov-13 01:25 341 9 gusting 15 0.3
2019-Nov-13 01:20 336 10 gusting 13 0.3
2019-Nov-13 01:15 342 9 gusting 14 0.5
2019-Nov-13 01:10 350 8 gusting 13 0.4
2019-Nov-13 01:05 354 8 gusting 12 0.4
2019-Nov-13 01:00 355 8 gusting 11 0.3
2019-Nov-13 00:55 357 8 gusting 12 0.3
2019-Nov-13 00:50 352 8 gusting 11 0.2
2019-Nov-13 00:45 347 7 gusting 12 0.1
2019-Nov-13 00:40 345 7 gusting 8 0.1
2019-Nov-13 00:35 347 6 gusting 10 0.2
2019-Nov-13 00:30 349 6 gusting 9 0.3
2019-Nov-13 00:25 355 6 gusting 9 0.2
2019-Nov-13 00:20 355 5 gusting 7 0.2
2019-Nov-13 00:15 357 5 gusting 7 0.1
2019-Nov-13 00:10 350 4 gusting 6 0.1
2019-Nov-13 00:05 351 4 gusting 6 0.1
2019-Nov-13 00:00 347 4 gusting 5 0.2
2019-Nov-12 23:55 343 4 gusting 5 0.2
2019-Nov-12 23:50 341 4 gusting 6 0.2
2019-Nov-12 23:45 343 4 gusting 6 0.3
2019-Nov-12 23:40 342 5 gusting 6 0.4
2019-Nov-12 23:35 340 4 gusting 5 0.5
2019-Nov-12 23:30 343 3 gusting 5 0.6
2019-Nov-12 23:25 346 5 gusting 6 0.7
2019-Nov-12 23:20 348 6 gusting 8 0.7
2019-Nov-12 23:15 347 5 gusting 7 0.8
2019-Nov-12 23:10 346 5 gusting 6 0.9
2019-Nov-12 23:05 346 5 gusting 7 1.0
2019-Nov-12 23:00 344 5 gusting 7 1.0
2019-Nov-12 22:55 345 6 gusting 9 1.2
2019-Nov-12 22:50 350 9 gusting 11 1.3
2019-Nov-12 22:45 352 9 gusting 12 1.2
2019-Nov-12 22:40 349 9 gusting 12 1.3
2019-Nov-12 22:35 343 8 gusting 11 1.3
2019-Nov-12 22:30 343 7 gusting 10 1.3
2019-Nov-12 22:25 345 8 gusting 12 1.4
2019-Nov-12 22:20 342 6 gusting 8 1.4
2019-Nov-12 22:15 340 6 gusting 9 1.4
2019-Nov-12 22:10 345 6 gusting 8 1.5
2019-Nov-12 22:05 346 7 gusting 10 1.5
2019-Nov-12 22:00 340 8 gusting 11 1.6
2019-Nov-12 21:55 337 10 gusting 14 1.7
2019-Nov-12 21:50 334 10 gusting 13 1.8
2019-Nov-12 21:45 338 8 gusting 16 1.7
2019-Nov-12 21:40 342 7 gusting 10 1.7
2019-Nov-12 21:35 337 8 gusting 11 1.5
2019-Nov-12 21:30 339 6 gusting 10 1.4
2019-Nov-12 21:25 337 5 gusting 6 1.4
2019-Nov-12 21:20 337 5 gusting 6 1.4
2019-Nov-12 21:15 345 5 gusting 7 1.4
2019-Nov-12 21:10 332 6 gusting 9 1.4
2019-Nov-12 21:05 334 5 gusting 8 1.3
2019-Nov-12 21:00 338 6 gusting 9 1.3
2019-Nov-12 20:55 334 7 gusting 10 1.2
2019-Nov-12 20:50 342 5 gusting 9 1.2
2019-Nov-12 20:45 344 4 gusting 8 1.2
2019-Nov-12 20:40 332 6 gusting 9 1.1
2019-Nov-12 20:35 333 10 gusting 16 0.9
2019-Nov-12 20:30 319 11 gusting 19 0.6
2019-Nov-12 20:25 318 5 gusting 18 0.4
2019-Nov-12 20:20 315 5 gusting 7 0.3
2019-Nov-12 20:15 307 5 gusting 7 0.3
2019-Nov-12 20:10 315 6 gusting 8 0.3
2019-Nov-12 20:05 313 6 gusting 10 0.3
2019-Nov-12 20:00 310 7 gusting 10 0.3
2019-Nov-12 19:55 314 7 gusting 11 0.3
2019-Nov-12 19:50 316 7 gusting 11 0.3
2019-Nov-12 19:45 314 7 gusting 10 0.3
2019-Nov-12 19:40 315 6 gusting 10 0.3
2019-Nov-12 19:35 308 5 gusting 8 0.4
2019-Nov-12 19:30 311 7 gusting 10 0.4
2019-Nov-12 19:25 312 7 gusting 12 0.4
2019-Nov-12 19:20 312 8 gusting 13 0.4
2019-Nov-12 19:15 316 8 gusting 12 0.4
2019-Nov-12 19:10 318 8 gusting 14 0.3
2019-Nov-12 19:05 313 6 gusting 12 0.3
2019-Nov-12 19:00 314 6 gusting 9 0.3
2019-Nov-12 18:55 314 6 gusting 8 0.4
2019-Nov-12 18:50 323 7 gusting 10 0.4
2019-Nov-12 18:45 316 6 gusting 9 0.4
2019-Nov-12 18:40 314 7 gusting 11 0.5
2019-Nov-12 18:35 316 7 gusting 9 0.5
2019-Nov-12 18:30 314 7 gusting 11 0.7
2019-Nov-12 18:25 316 8 gusting 11 0.8
2019-Nov-12 18:20 322 9 gusting 13 1.0
2019-Nov-12 18:15 324 11 gusting 17 1.2
2019-Nov-12 18:10 323 11 gusting 16 1.3
2019-Nov-12 18:05 315 13 gusting 17 1.4
2019-Nov-12 18:00 313 15 gusting 21 1.5
2019-Nov-12 17:55 318 17 gusting 23 1.9
2019-Nov-12 17:50 326 17 gusting 24 2.4
2019-Nov-12 17:45 313 16 gusting 23 2.6
2019-Nov-12 17:40 309 15 gusting 22 2.9
2019-Nov-12 17:35 311 14 gusting 18 3.1
2019-Nov-12 17:30 320 10 gusting 14 3.4
2019-Nov-12 17:25 312 15 gusting 25 3.5
2019-Nov-12 17:20 319 17 gusting 27 3.7
2019-Nov-12 17:15 323 16 gusting 23 4.1
2019-Nov-12 17:10 324 13 gusting 18 4.4
2019-Nov-12 17:05 314 11 gusting 17 4.4
2019-Nov-12 17:00 326 13 gusting 18 4.6
2019-Nov-12 16:55 322 14 gusting 21 4.7
2019-Nov-12 16:50 325 13 gusting 18 4.8
2019-Nov-12 16:45 324 12 gusting 16 5.2
2019-Nov-12 16:40 312 10 gusting 16 5.3
2019-Nov-12 16:35 309 12 gusting 19 5.3
2019-Nov-12 16:30 302 10 gusting 17 5.4
2019-Nov-12 16:25 304 9 gusting 14 5.5
2019-Nov-12 16:20 301 10 gusting 13 5.6
2019-Nov-12 16:15 295 12 gusting 19 5.7
2019-Nov-12 16:10 299 12 gusting 19 5.8
2019-Nov-12 16:05 299 14 gusting 20 6.2
2019-Nov-12 16:00 303 11 gusting 16 6.4
2019-Nov-12 15:55 306 13 gusting 19 6.5
2019-Nov-12 15:50 306 14 gusting 20 6.8
2019-Nov-12 15:45 308 16 gusting 23 7.1
2019-Nov-12 15:40 302 14 gusting 21 7.3
2019-Nov-12 15:35 304 12 gusting 20 7.4
2019-Nov-12 15:30 303 12 gusting 18 7.5
2019-Nov-12 15:25 300 13 gusting 20 7.6
2019-Nov-12 15:20 303 11 gusting 16 7.7
2019-Nov-12 15:15 301 11 gusting 16 7.7
2019-Nov-12 15:10 299 13 gusting 20 7.9
2019-Nov-12 15:05 299 13 gusting 21 8.1
2019-Nov-12 15:00 296 14 gusting 21 8.2
2019-Nov-12 14:55 297 13 gusting 19 8.3
2019-Nov-12 14:50 297 13 gusting 18 8.6
2019-Nov-12 14:45 297 16 gusting 22 9.0
2019-Nov-12 14:40 297 14 gusting 24 9.5
2019-Nov-12 14:35 289 17 gusting 23 10.3
2019-Nov-12 14:30 282 8 gusting 12 10.7
2019-Nov-12 14:25 282 7 gusting 9 10.8
2019-Nov-12 14:20 282 7 gusting 10 10.8
2019-Nov-12 14:15 280 7 gusting 10 10.9
2019-Nov-12 14:10 275 8 gusting 10 11.0
2019-Nov-12 14:05 280 8 gusting 11 11.1
2019-Nov-12 14:00 281 8 gusting 11 11.2
2019-Nov-12 13:55 286 8 gusting 10 11.4
2019-Nov-12 13:50 289 9 gusting 11 11.6
2019-Nov-12 13:45 282 9 gusting 15 11.8
2019-Nov-12 13:40 280 8 gusting 12 12.2
2019-Nov-12 13:35 270 6 gusting 8 12.5
2019-Nov-12 13:30 254 6 gusting 8 12.6
2019-Nov-12 13:25 250 5 gusting 9 12.7
2019-Nov-12 13:20 257 4 gusting 7 12.8
2019-Nov-12 13:15 251 4 gusting 6 12.8
2019-Nov-12 13:10 244 4 gusting 6 12.9
2019-Nov-12 13:05 243 4 gusting 7 13.0
2019-Nov-12 13:00 232 5 gusting 9 13.0
2019-Nov-12 12:55 226 6 gusting 8 13.0
2019-Nov-12 12:50 224 7 gusting 10 13.2
2019-Nov-12 12:45 228 8 gusting 11 13.3
2019-Nov-12 12:40 230 9 gusting 13 13.6
2019-Nov-12 12:35 231 9 gusting 14 13.9
2019-Nov-12 12:30 231 11 gusting 15 14.1
2019-Nov-12 12:25 228 9 gusting 13 14.2
2019-Nov-12 12:20 226 10 gusting 15 14.3
2019-Nov-12 12:15 231 9 gusting 17 14.2
2019-Nov-12 12:10 230 9 gusting 12 14.1
2019-Nov-12 12:05 218 7 gusting 10 14.0
2019-Nov-12 12:00 212 7 gusting 9 14.1
2019-Nov-12 11:55 202 7 gusting 11 14.1
2019-Nov-12 11:50 209 7 gusting 10 14.1
2019-Nov-12 11:45 216 7 gusting 10 14.1
2019-Nov-12 11:40 217 7 gusting 10 14.2
2019-Nov-12 11:35 215 8 gusting 12 14.2
2019-Nov-12 11:30 212 8 gusting 10 14.2
2019-Nov-12 11:25 201 7 gusting 12 14.3
2019-Nov-12 11:20 218 8 gusting 12 14.4
2019-Nov-12 11:15 219 10 gusting 14 14.4
2019-Nov-12 11:10 220 9 gusting 15 14.4
2019-Nov-12 11:05 218 8 gusting 11 14.4
2019-Nov-12 11:00 220 10 gusting 13 14.4
2019-Nov-12 10:55 218 10 gusting 13 14.4
2019-Nov-12 10:50 218 11 gusting 16 14.4
2019-Nov-12 10:45 216 10 gusting 16 14.3
2019-Nov-12 10:40 218 10 gusting 16 14.2
2019-Nov-12 10:35 217 10 gusting 15 14.1
2019-Nov-12 10:30 215 11 gusting 14 14.2
2019-Nov-12 10:25 214 10 gusting 15 14.2
2019-Nov-12 10:20 213 11 gusting 16 14.2
2019-Nov-12 10:15 210 11 gusting 15 14.2
2019-Nov-12 10:10 209 11 gusting 16 14.3
2019-Nov-12 10:05 207 11 gusting 15 14.3
2019-Nov-12 10:00 207 11 gusting 18 14.4
2019-Nov-12 09:55 209 12 gusting 15 14.4
2019-Nov-12 09:50 201 12 gusting 17 14.4
2019-Nov-12 09:45 202 12 gusting 18 14.5
2019-Nov-12 09:40 205 10 gusting 14 14.5
2019-Nov-12 09:35 204 11 gusting 16 14.5
2019-Nov-12 09:30 204 13 gusting 20 14.6
2019-Nov-12 09:25 210 13 gusting 18 14.5
2019-Nov-12 09:20 212 14 gusting 17 14.6
2019-Nov-12 09:15 207 13 gusting 16 14.6
2019-Nov-12 09:10 208 14 gusting 19 14.6
2019-Nov-12 09:05 207 14 gusting 20 14.6
2019-Nov-12 09:00 209 13 gusting 20 14.6
2019-Nov-12 08:55 205 13 gusting 18 14.6
2019-Nov-12 08:50 206 14 gusting 19 14.7
2019-Nov-12 08:45 205 14 gusting 20 14.7
2019-Nov-12 08:40 200 14 gusting 22 14.8
2019-Nov-12 08:35 208 15 gusting 23 14.8
2019-Nov-12 08:30 200 14 gusting 23 14.7
2019-Nov-12 08:25 199 13 gusting 19 14.7
2019-Nov-12 08:20 200 12 gusting 20 14.6
2019-Nov-12 08:15 203 13 gusting 19 14.7
2019-Nov-12 08:10 203 12 gusting 17 14.7
2019-Nov-12 08:05 203 12 gusting 17 14.7
2019-Nov-12 08:00 204 12 gusting 18 14.6
2019-Nov-12 07:55 201 11 gusting 18 14.6
2019-Nov-12 07:50 200 12 gusting 16 14.7
2019-Nov-12 07:45 200 13 gusting 17 14.8
2019-Nov-12 07:40 200 13 gusting 18 14.7
2019-Nov-12 07:35 198 12 gusting 20 14.7
2019-Nov-12 07:30 203 11 gusting 17 14.7
2019-Nov-12 07:25 199 12 gusting 17 14.7
2019-Nov-12 07:20 199 12 gusting 19 14.7
2019-Nov-12 07:15 198 12 gusting 17 14.8
2019-Nov-12 07:10 199 12 gusting 16 14.8
2019-Nov-12 07:05 198 12 gusting 20 14.9
2019-Nov-12 07:00 198 13 gusting 17 14.8
2019-Nov-12 06:55 198 11 gusting 18 14.9
2019-Nov-12 06:50 202 12 gusting 15 14.9
2019-Nov-12 06:45 200 11 gusting 16 14.8
2019-Nov-12 06:40 198 11 gusting 16 14.8
2019-Nov-12 06:35 195 12 gusting 16 14.9
2019-Nov-12 06:30 194 11 gusting 14 14.9
2019-Nov-12 06:25 199 11 gusting 14 14.9
2019-Nov-12 06:20 197 11 gusting 15 14.9
2019-Nov-12 06:15 194 10 gusting 15 15.0
2019-Nov-12 06:10 197 10 gusting 14 15.1
2019-Nov-12 06:05 199 13 gusting 19 15.2
2019-Nov-12 06:00 199 11 gusting 17 15.1
2019-Nov-12 05:55 203 11 gusting 16 15.2
2019-Nov-12 05:50 201 11 gusting 18 15.1
2019-Nov-12 05:45 200 10 gusting 15 15.1
2019-Nov-12 05:40 197 11 gusting 15 15.1
2019-Nov-12 05:35 201 10 gusting 14 15.2
2019-Nov-12 05:30 198 11 gusting 16 15.1
2019-Nov-12 05:25 198 11 gusting 18 15.0
2019-Nov-12 05:20 196 9 gusting 15 14.9
2019-Nov-12 05:15 197 9 gusting 15 14.9
2019-Nov-12 05:10 194 11 gusting 16 14.7
2019-Nov-12 05:05 191 9 gusting 12 14.5
2019-Nov-12 05:00 192 10 gusting 14 14.6
2019-Nov-12 04:55 191 9 gusting 12 14.4
2019-Nov-12 04:50 187 9 gusting 12 14.4
2019-Nov-12 04:45 187 9 gusting 12 14.3
2019-Nov-12 04:40 190 9 gusting 12 14.3
2019-Nov-12 04:35 191 9 gusting 11 14.4
2019-Nov-12 04:30 189 9 gusting 12 14.3
2019-Nov-12 04:25 191 8 gusting 12 14.3
2019-Nov-12 04:20 193 9 gusting 12 14.2
2019-Nov-12 04:15 189 9 gusting 13 14.2
2019-Nov-12 04:10 192 9 gusting 12 14.2
2019-Nov-12 04:05 192 10 gusting 15 14.1
2019-Nov-12 04:00 192 9 gusting 13 14.0
2019-Nov-12 03:55 189 9 gusting 11 13.9
2019-Nov-12 03:50 190 8 gusting 12 13.9
2019-Nov-12 03:45 185 9 gusting 12 14.1
2019-Nov-12 03:40 187 9 gusting 13 14.0
2019-Nov-12 03:35 190 8 gusting 12 13.8
2019-Nov-12 03:30 190 8 gusting 12 13.8
2019-Nov-12 03:25 191 7 gusting 11 13.6
2019-Nov-12 03:20 192 8 gusting 11 13.7
2019-Nov-12 03:15 194 8 gusting 12 13.7
2019-Nov-12 03:10 195 8 gusting 11 13.5
2019-Nov-12 03:05 191 8 gusting 12 13.4
2019-Nov-12 03:00 188 8 gusting 13 13.4
2019-Nov-12 02:55 188 8 gusting 11 13.3
2019-Nov-12 02:50 190 8 gusting 11 13.1
2019-Nov-12 02:45 187 8 gusting 12 13.4
2019-Nov-12 02:40 184 8 gusting 11 13.3
2019-Nov-12 02:35 186 8 gusting 12 13.3
2019-Nov-12 02:30 186 9 gusting 12 13.4
2019-Nov-12 02:25 183 8 gusting 13 13.2
2019-Nov-12 02:20 186 8 gusting 10 13.3
2019-Nov-12 02:15 183 9 gusting 14 13.3
2019-Nov-12 02:10 184 8 gusting 11 13.2
2019-Nov-12 02:05 183 7 gusting 10 13.2
2019-Nov-12 02:00 177 7 gusting 10 13.2
2019-Nov-12 01:55 173 7 gusting 10 13.2
2019-Nov-12 01:50 178 8 gusting 10 13.2
2019-Nov-12 01:45 179 7 gusting 10 12.9
2019-Nov-12 01:40 185 7 gusting 9 12.9
2019-Nov-12 01:35 184 8 gusting 10 13.0
2019-Nov-12 01:30 182 8 gusting 11 13.0
2019-Nov-12 01:25 186 7 gusting 10 12.8
2019-Nov-12 01:20 191 8 gusting 11 13.0
2019-Nov-12 01:15 193 7 gusting 10 12.8
2019-Nov-12 01:10 192 7 gusting 10 12.8
2019-Nov-12 01:05 188 8 gusting 10 12.9
2019-Nov-12 01:00 189 8 gusting 11 13.0
2019-Nov-12 00:55 196 6 gusting 10 13.0
2019-Nov-12 00:50 182 7 gusting 12 13.1
2019-Nov-12 00:45 172 6 gusting 11 13.3
2019-Nov-12 00:40 164 9 gusting 13 13.3
2019-Nov-12 00:35 161 8 gusting 11 13.1
2019-Nov-12 00:30 167 8 gusting 11 13.1
2019-Nov-12 00:25 166 7 gusting 11 13.1
2019-Nov-12 00:20 165 7 gusting 9 13.2
2019-Nov-12 00:15 169 6 gusting 9 13.2
2019-Nov-12 00:10 168 6 gusting 9 13.2
2019-Nov-12 00:05 163 7 gusting 10 13.4
2019-Nov-12 00:00 159 7 gusting 11 13.4
2019-Nov-11 23:55 160 8 gusting 11 13.5
2019-Nov-11 23:50 162 7 gusting 13 13.4
2019-Nov-11 23:45 154 6 gusting 9 13.4
2019-Nov-11 23:40 150 7 gusting 11 13.5
2019-Nov-11 23:35 149 6 gusting 9 13.5
2019-Nov-11 23:30 148 7 gusting 11 13.4
2019-Nov-11 23:25 151 7 gusting 9 13.4
2019-Nov-11 23:20 145 6 gusting 8 13.2
2019-Nov-11 23:15 142 5 gusting 8 13.5
2019-Nov-11 23:10 142 5 gusting 7 13.7
2019-Nov-11 23:05 146 6 gusting 7 13.6
2019-Nov-11 23:00 149 5 gusting 6 13.8
2019-Nov-11 22:55 154 4 gusting 5 13.7
2019-Nov-11 22:50 157 4 gusting 6 13.9
2019-Nov-11 22:45 164 5 gusting 6 14.4
2019-Nov-11 22:40 167 5 gusting 7 14.7
2019-Nov-11 22:35 168 4 gusting 6 14.9
2019-Nov-11 22:30 176 4 gusting 6 14.8
2019-Nov-11 22:25 188 4 gusting 5 14.7
2019-Nov-11 22:20 188 5 gusting 7 14.9
2019-Nov-11 22:15 190 5 gusting 9 15.2
2019-Nov-11 22:10 194 6 gusting 8 15.5
2019-Nov-11 22:05 197 6 gusting 9 15.9
2019-Nov-11 22:00 199 7 gusting 9 16.1
2019-Nov-11 21:55 200 8 gusting 12 16.4
2019-Nov-11 21:50 203 7 gusting 11 16.7
2019-Nov-11 21:45 203 9 gusting 12 16.8
2019-Nov-11 21:40 196 10 gusting 12 16.9
2019-Nov-11 21:35 193 11 gusting 16 17.1
2019-Nov-11 21:30 187 11 gusting 16 17.4
2019-Nov-11 21:25 174 8 gusting 12 17.5
2019-Nov-11 21:20 165 6 gusting 10 17.8
2019-Nov-11 21:15 172 4 gusting 6 18.0
2019-Nov-11 21:10 172 5 gusting 10 18.4
2019-Nov-11 21:05 178 8 gusting 11 18.5
2019-Nov-11 21:00 178 8 gusting 12 18.5
2019-Nov-11 20:55 167 7 gusting 10 18.6
2019-Nov-11 20:50 163 8 gusting 12 18.9
2019-Nov-11 20:45 164 7 gusting 9 19.2
2019-Nov-11 20:40 169 7 gusting 10 19.4
2019-Nov-11 20:35 167 8 gusting 10 19.5
2019-Nov-11 20:30 163 7 gusting 10 19.6
2019-Nov-11 20:25 161 9 gusting 10 19.6
2019-Nov-11 20:20 156 7 gusting 10 19.8
2019-Nov-11 20:15 182 6 gusting 11 19.8
2019-Nov-11 20:10 180 7 gusting 10 20.0
2019-Nov-11 20:05 182 7 gusting 10 20.0
2019-Nov-11 20:00 176 6 gusting 8 20.1
2019-Nov-11 19:55 181 6 gusting 8 20.0
2019-Nov-11 19:50 164 6 gusting 10 20.0
2019-Nov-11 19:45 178 6 gusting 8 20.2
2019-Nov-11 19:40 166 5 gusting 8 20.2
2019-Nov-11 19:35 172 6 gusting 10 20.1
2019-Nov-11 19:30 172 9 gusting 12 20.0
2019-Nov-11 19:25 166 7 gusting 10 20.3
2019-Nov-11 19:20 175 7 gusting 9 20.1
2019-Nov-11 19:15 163 7 gusting 9 19.8
2019-Nov-11 19:10 146 8 gusting 11 19.8
2019-Nov-11 19:05 150 6 gusting 9 19.8
2019-Nov-11 19:00 155 6 gusting 10 20.2
2019-Nov-11 18:55 138 5 gusting 8 20.0
2019-Nov-11 18:50 149 5 gusting 7 20.0
2019-Nov-11 18:45 164 5 gusting 8 19.7
2019-Nov-11 18:40 153 5 gusting 7 19.5
2019-Nov-11 18:35 171 4 gusting 6 19.5
2019-Nov-11 18:30 148 5 gusting 7 19.4
2019-Nov-11 18:25 158 4 gusting 7 19.6
2019-Nov-11 18:20 148 3 gusting 5 19.7
2019-Nov-11 18:15 153 4 gusting 6 19.3
2019-Nov-11 18:10 151 3 gusting 7 19.2
2019-Nov-11 18:05 153 3 gusting 6 19.0
2019-Nov-11 18:00 159 4 gusting 6 18.9
2019-Nov-11 17:55 172 2 gusting 4 18.6
2019-Nov-11 17:50 176 3 gusting 5 18.6
2019-Nov-11 17:45 181 3 gusting 6 18.4
2019-Nov-11 17:40 207 3 gusting 5 18.4
2019-Nov-11 17:35 184 2 gusting 3 18.4
2019-Nov-11 17:30 191 2 gusting 5 18.2
2019-Nov-11 17:25 188 1 gusting 3 17.9
2019-Nov-11 17:20 152 3 gusting 4 18.0
2019-Nov-11 17:15 183 3 gusting 4 17.8
2019-Nov-11 17:10 195 2 gusting 4 17.8
2019-Nov-11 17:05 162 1 gusting 3 17.6
2019-Nov-11 17:00 219 2 gusting 4 17.3
2019-Nov-11 16:55 216 2 gusting 3 17.1
2019-Nov-11 16:50 230 2 gusting 4 17.1
2019-Nov-11 16:45 220 2 gusting 4 16.9
2019-Nov-11 16:40 226 3 gusting 5 16.8
2019-Nov-11 16:35 191 3 gusting 4 16.6
2019-Nov-11 16:30 218 3 gusting 5 16.5
2019-Nov-11 16:25 227 4 gusting 6 16.4
2019-Nov-11 16:20 232 4 gusting 6 16.1
2019-Nov-11 16:15 215 4 gusting 6 16.0
2019-Nov-11 16:10 208 4 gusting 5 15.9
2019-Nov-11 16:05 217 5 gusting 6 15.7
2019-Nov-11 16:00 215 6 gusting 8 15.7
2019-Nov-11 15:55 220 6 gusting 8 15.5
2019-Nov-11 15:50 213 5 gusting 8 15.6
2019-Nov-11 15:45 191 6 gusting 8 15.3
2019-Nov-11 15:40 195 4 gusting 6 15.4
2019-Nov-11 15:35 213 4 gusting 5 15.1
2019-Nov-11 15:30 200 4 gusting 6 15.1
2019-Nov-11 15:25 199 5 gusting 7 14.9
2019-Nov-11 15:20 195 4 gusting 8 14.6
2019-Nov-11 15:15 203 5 gusting 6 14.6
2019-Nov-11 15:10 204 5 gusting 8 14.4
2019-Nov-11 15:05 203 6 gusting 8 14.1
2019-Nov-11 15:00 207 5 gusting 7 13.9
2019-Nov-11 14:55 207 6 gusting 9 13.8
2019-Nov-11 14:50 210 6 gusting 8 13.6
2019-Nov-11 14:45 195 7 gusting 8 13.6
2019-Nov-11 14:40 192 6 gusting 8 13.5
2019-Nov-11 14:35 203 5 gusting 8 13.3
2019-Nov-11 14:30 195 7 gusting 8 13.1
2019-Nov-11 14:25 198 7 gusting 10 12.9
2019-Nov-11 14:20 202 8 gusting 10 12.7
2019-Nov-11 14:15 208 7 gusting 10 12.6
2019-Nov-11 14:10 210 8 gusting 10 12.4
2019-Nov-11 14:05 208 8 gusting 10 12.3
2019-Nov-11 14:00 208 7 gusting 11 12.2
2019-Nov-11 13:55 211 6 gusting 9 12.0
2019-Nov-11 13:50 209 6 gusting 9 11.8
2019-Nov-11 13:45 207 6 gusting 8 11.6
2019-Nov-11 13:40 206 6 gusting 9 11.4
2019-Nov-11 13:35 202 5 gusting 6 11.3
2019-Nov-11 13:30 199 5 gusting 8 11.0
2019-Nov-11 13:25 193 5 gusting 8 10.7
2019-Nov-11 13:20 191 6 gusting 7 10.5
2019-Nov-11 13:15 194 5 gusting 8 10.2
2019-Nov-11 13:10 194 5 gusting 6 10.1
2019-Nov-11 13:05 203 4 gusting 5 9.8
2019-Nov-11 13:00 200 3 gusting 6 9.2
2019-Nov-11 12:55 192 3 gusting 4 8.7
2019-Nov-11 12:50 176 2 gusting 5 8.4
2019-Nov-11 12:45 173 2 gusting 4 8.1
2019-Nov-11 12:40 174 2 gusting 3 7.9
2019-Nov-11 12:35 175 2 gusting 3 7.6
2019-Nov-11 12:30 174 2 gusting 3 6.9
2019-Nov-11 12:25 187 2 gusting 3 6.8
2019-Nov-11 12:20 187 1 gusting 2 6.6
2019-Nov-11 12:15 184 1 gusting 2 6.4
2019-Nov-11 12:10 186 2 gusting 2 6.2
2019-Nov-11 12:05 187 2 gusting 3 5.9
2019-Nov-11 12:00 171 1 gusting 2 5.8
2019-Nov-11 11:55 171 1 gusting 2 6.1
2019-Nov-11 11:50 170 1 gusting 2 6.3
2019-Nov-11 11:45 169 1 gusting 2 6.2
2019-Nov-11 11:40 178 1 gusting 2 6.2
2019-Nov-11 11:35 171 1 gusting 2 6.3
2019-Nov-11 11:30 165 1 gusting 3 6.1
2019-Nov-11 11:25 171 2 gusting 3 5.9
2019-Nov-11 11:20 174 2 gusting 2 6.1
2019-Nov-11 11:15 165 2 gusting 3 6.3
2019-Nov-11 11:10 161 1 gusting 2 6.3
2019-Nov-11 11:05 155 1 gusting 2 6.4
2019-Nov-11 11:00 160 2 gusting 3 6.5
2019-Nov-11 10:55 166 1 gusting 2 6.7
2019-Nov-11 10:50 170 2 gusting 3 6.6
2019-Nov-11 10:45 174 3 gusting 3 6.7
2019-Nov-11 10:40 181 3 gusting 4 7.0
2019-Nov-11 10:35 191 2 gusting 3 6.7
2019-Nov-11 10:30 194 1 gusting 2 6.5
2019-Nov-11 10:25 186 0 gusting 1 6.4
2019-Nov-11 10:20 166 0 gusting 2 6.4
2019-Nov-11 10:15 179 2 gusting 4 6.4
2019-Nov-11 10:10 181 2 gusting 3 6.4
2019-Nov-11 10:05 176 3 gusting 5 6.4
2019-Nov-11 10:00 175 3 gusting 5 6.3
2019-Nov-11 09:55 164 3 gusting 4 6.9
2019-Nov-11 09:50 158 3 gusting 4 7.0
2019-Nov-11 09:45 160 2 gusting 4 6.8
2019-Nov-11 09:40 164 2 gusting 2 6.8
2019-Nov-11 09:35 165 3 gusting 4 6.9
2019-Nov-11 09:30 163 3 gusting 4 7.1
2019-Nov-11 09:25 165 3 gusting 4 7.2
2019-Nov-11 09:20 171 3 gusting 4 7.1
2019-Nov-11 09:15 164 4 gusting 5 7.3
2019-Nov-11 09:10 160 4 gusting 5 7.3
2019-Nov-11 09:05 160 4 gusting 6 7.4
2019-Nov-11 09:00 160 3 gusting 5 7.1
2019-Nov-11 08:55 165 2 gusting 3 6.8
2019-Nov-11 08:50 179 2 gusting 3 6.5
2019-Nov-11 08:45 166 2 gusting 3 6.5
2019-Nov-11 08:40 158 2 gusting 2 6.6
2019-Nov-11 08:35 162 2 gusting 3 6.3
2019-Nov-11 08:30 166 2 gusting 3 6.2
2019-Nov-11 08:25 170 2 gusting 3 6.4
2019-Nov-11 08:20 162 2 gusting 4 6.5
2019-Nov-11 08:15 161 2 gusting 3 6.5
2019-Nov-11 08:10 159 2 gusting 3 6.3
2019-Nov-11 08:05 160 2 gusting 3 6.5
2019-Nov-11 08:00 161 3 gusting 4 6.7
2019-Nov-11 07:55 155 3 gusting 4 6.6
2019-Nov-11 07:50 149 3 gusting 4 6.5
2019-Nov-11 07:45 150 3 gusting 4 6.6
2019-Nov-11 07:40 147 3 gusting 4 6.7
2019-Nov-11 07:35 150 3 gusting 5 6.5
2019-Nov-11 07:30 147 3 gusting 4 6.5
2019-Nov-11 07:25 149 3 gusting 4 6.6
2019-Nov-11 07:20 153 3 gusting 5 6.8
2019-Nov-11 07:15 160 3 gusting 5 7.0
2019-Nov-11 07:10 160 3 gusting 4 7.0
2019-Nov-11 07:05 159 3 gusting 4 7.0
2019-Nov-11 07:00 153 3 gusting 5 7.1
2019-Nov-11 06:55 153 3 gusting 4 7.3
2019-Nov-11 06:50 157 3 gusting 5 7.4
2019-Nov-11 06:45 159 3 gusting 5 7.4
2019-Nov-11 06:40 157 3 gusting 4 7.4
2019-Nov-11 06:35 173 1 gusting 3 7.0
2019-Nov-11 06:30 187 0 gusting 2 7.1
2019-Nov-11 06:25 173 1 gusting 3 7.1
2019-Nov-11 06:20 160 2 gusting 3 7.1
2019-Nov-11 06:15 163 2 gusting 3 7.2
2019-Nov-11 06:10 164 2 gusting 3 7.2
2019-Nov-11 06:05 171 2 gusting 3 7.1
2019-Nov-11 06:00 167 2 gusting 3 7.2
2019-Nov-11 05:55 167 2 gusting 3 7.4
2019-Nov-11 05:50 160 2 gusting 4 7.4
2019-Nov-11 05:45 159 2 gusting 3 7.2
2019-Nov-11 05:40 162 1 gusting 2 7.0
2019-Nov-11 05:35 169 1 gusting 3 7.0
2019-Nov-11 05:30 154 2 gusting 3 7.2
2019-Nov-11 05:25 158 3 gusting 4 7.4
2019-Nov-11 05:20 160 4 gusting 5 7.2
2019-Nov-11 05:15 158 3 gusting 5 7.0
2019-Nov-11 05:10 151 3 gusting 5 7.3
2019-Nov-11 05:05 155 3 gusting 4 7.6
2019-Nov-11 05:00 170 2 gusting 4 7.6
2019-Nov-11 04:55 181 3 gusting 4 7.4
2019-Nov-11 04:50 192 2 gusting 3 7.0
2019-Nov-11 04:45 194 0 gusting 2 6.7
2019-Nov-11 04:40 202 0 gusting 1 6.6
2019-Nov-11 04:35 187 0 gusting 2 6.5
2019-Nov-11 04:30 156 1 gusting 3 6.4
2019-Nov-11 04:25 158 0 gusting 2 6.0
2019-Nov-11 04:20 188 1 gusting 2 5.7
2019-Nov-11 04:15 168 1 gusting 2 5.2
2019-Nov-11 04:10 152 1 gusting 3 5.1
2019-Nov-11 04:05 154 2 gusting 3 4.6
2019-Nov-11 04:00 147 2 gusting 4 4.3